Time;durP1;ratioP1;P1;durP2;ratioP2;P2;SDS_P1;SDS_P2;PMS_P1;PMS_P2;Temp;Humidity;BMP_temperature;BMP_pressure;BME280_temperature;BME280_humidity;BME280_pressure;Samples;Min_cycle;Max_cycle;Signal;HPM_P1;HPM_P2
2023/11/21 00:01:03;;;;;;;1639.10;999.90;;;;;;;3.78;98.52;100160.90;106071;1292;58986;-56
2023/11/21 00:03:49;;;;;;;1636.40;999.90;;;;;;;3.77;98.57;100164.32;106039;1292;73608;-57
2023/11/21 00:06:35;;;;;;;1658.80;999.90;;;;;;;3.76;98.57;100166.18;106042;1293;68520;-56
2023/11/21 00:09:21;;;;;;;1634.00;999.90;;;;;;;3.72;98.43;100167.86;106068;1292;71402;-56
2023/11/21 00:12:11;;;;;;;1616.20;999.90;;;;;;;3.70;98.58;100173.14;106053;1295;58603;-56
2023/11/21 00:14:57;;;;;;;1649.40;999.90;;;;;;;3.67;98.71;100177.73;106047;1293;59020;-56
2023/11/21 00:17:53;;;;;;;1690.80;999.90;;;;;;;3.62;98.69;100175.52;87267;1295;5075118;-56
2023/11/21 00:20:39;;;;;;;1654.00;999.90;;;;;;;3.58;98.74;100179.93;106062;1292;71398;-55
2023/11/21 00:23:25;;;;;;;1655.00;999.90;;;;;;;3.56;98.65;100187.08;106023;1295;58670;-56
2023/11/21 00:26:11;;;;;;;1607.50;999.90;;;;;;;3.53;98.72;100189.45;106016;1291;60623;-56
2023/11/21 00:28:57;;;;;;;1603.50;999.90;;;;;;;3.49;98.76;100195.89;106050;1292;72359;-56
2023/11/21 00:31:44;;;;;;;1641.10;999.90;;;;;;;3.45;98.77;100195.02;106048;1291;66945;-57
2023/11/21 00:34:30;;;;;;;1654.30;999.90;;;;;;;3.44;98.68;100196.89;106050;1292;72558;-56
2023/11/21 00:37:16;;;;;;;1596.70;999.90;;;;;;;3.44;98.67;100199.44;106023;1293;58330;-57
2023/11/21 00:40:05;;;;;;;1632.90;999.90;;;;;;;3.43;98.69;100199.27;106044;1292;58710;-56
2023/11/21 00:42:51;;;;;;;1578.90;999.90;;;;;;;3.42;98.52;100202.83;106045;1292;72597;-56
2023/11/21 00:45:37;;;;;;;1657.70;999.90;;;;;;;3.38;98.37;100201.95;106063;1292;67413;-56
2023/11/21 00:48:23;;;;;;;1604.70;999.90;;;;;;;3.37;98.40;100204.52;106065;1292;71032;-56
2023/11/21 00:51:09;;;;;;;1564.20;999.90;;;;;;;3.35;98.40;100202.79;106051;1292;58522;-56
2023/11/21 00:53:55;;;;;;;1582.30;999.90;;;;;;;3.33;98.30;100203.30;106042;1295;61636;-56
2023/11/21 00:56:41;;;;;;;1577.80;999.90;;;;;;;3.32;98.19;100202.43;106053;1293;73370;-57
2023/11/21 00:59:26;;;;;;;1599.20;999.90;;;;;;;3.29;98.19;100193.73;106039;1292;67768;-56
2023/11/21 01:02:12;;;;;;;1546.40;999.90;;;;;;;3.28;98.27;100192.52;106045;1292;71361;-57
2023/11/21 01:04:58;;;;;;;1568.40;999.90;;;;;;;3.26;98.25;100195.41;106054;1295;58179;-55
2023/11/21 01:07:45;;;;;;;1595.00;999.90;;;;;;;3.22;98.18;100202.19;106082;1292;58743;-56
2023/11/21 01:10:30;;;;;;;1550.90;999.90;;;;;;;3.16;98.10;100206.58;106063;1292;74115;-55
2023/11/21 01:13:16;;;;;;;1596.60;999.90;;;;;;;3.14;98.22;100206.05;106085;1292;66902;-57
2023/11/21 01:16:03;;;;;;;1559.80;999.90;;;;;;;3.11;98.30;100210.65;106033;1293;72522;-57
2023/11/21 01:18:49;;;;;;;1563.90;999.90;;;;;;;3.09;98.40;100215.23;105586;1292;59114;-56
2023/11/21 01:21:35;;;;;;;1524.30;999.90;;;;;;;3.08;98.36;100220.00;104712;1297;61570;-56
2023/11/21 01:24:22;;;;;;;1530.90;999.90;;;;;;;3.09;98.34;100221.19;104738;1295;72595;-55
2023/11/21 01:27:08;;;;;;;1552.70;999.90;;;;;;;3.05;98.37;100225.92;104770;1293;70366;-54
2023/11/21 01:29:55;;;;;;;1538.80;999.90;;;;;;;3.01;98.34;100230.83;104726;1295;71944;-55
2023/11/21 01:32:41;;;;;;;1556.10;999.90;;;;;;;2.97;98.47;100234.89;104755;1291;60350;-55
2023/11/21 01:35:27;;;;;;;;;;;;;;;2.94;98.47;100234.01;104732;1295;60457;-55
2023/11/21 01:38:15;;;;;;;1337.80;999.90;;;;;;;2.89;98.47;100236.52;104708;1292;72371;-56
2023/11/21 01:41:01;;;;;;;1462.40;999.90;;;;;;;2.86;98.46;100245.85;104743;1292;67771;-55
2023/11/21 01:43:47;;;;;;;1466.40;999.90;;;;;;;2.80;98.48;100246.13;104700;1293;72398;-56
2023/11/21 01:46:34;;;;;;;1482.60;999.90;;;;;;;2.77;98.43;100246.61;104742;1295;61764;-55
2023/11/21 01:49:21;;;;;;;1466.60;999.90;;;;;;;2.76;98.42;100245.92;104736;1295;59957;-55
2023/11/21 01:52:07;;;;;;;1441.50;999.90;;;;;;;2.76;98.44;100241.66;104729;1294;71465;-56
2023/11/21 01:54:54;;;;;;;1460.90;999.90;;;;;;;2.75;98.57;100247.11;104743;1295;67413;-52
2023/11/21 01:57:41;;;;;;;;;;;;;;;2.73;98.34;100245.89;104741;1297;71467;-55
2023/11/21 02:00:28;;;;;;;1367.80;999.90;;;;;;;2.74;98.41;100248.11;104676;1292;60412;-56
2023/11/21 02:03:14;;;;;;;1409.30;999.90;;;;;;;2.75;98.31;100250.84;104693;1297;60332;-55
2023/11/21 02:06:01;;;;;;;1424.00;999.90;;;;;;;2.74;98.57;100257.65;104727;1292;72371;-56
2023/11/21 02:08:48;;;;;;;1423.70;999.90;;;;;;;2.72;98.59;100256.44;106063;1293;67102;-56
2023/11/21 02:11:34;;;;;;;1484.00;999.90;;;;;;;2.68;98.39;100257.77;106020;1291;71196;-56
2023/11/21 02:14:22;;;;;;;1471.10;999.90;;;;;;;2.62;98.39;100262.12;106045;1295;58472;-57
2023/11/21 02:17:08;;;;;;;1465.20;999.90;;;;;;;2.60;98.32;100265.19;106041;1292;60043;-57
2023/11/21 02:19:54;;;;;;;1483.10;999.90;;;;;;;2.60;98.28;100267.39;106070;1292;72537;-56
2023/11/21 02:22:41;;;;;;;1494.70;999.90;;;;;;;2.61;98.28;100271.13;106036;1292;68792;-56
2023/11/21 02:25:30;;;;;;;1500.40;999.90;;;;;;;2.59;98.33;100270.27;106026;1291;71380;-57
2023/11/21 02:28:25;;;;;;;1448.80;999.90;;;;;;;2.57;98.30;100278.77;106066;1292;58467;-57
2023/11/21 02:31:12;;;;;;;1476.30;999.90;;;;;;;2.55;98.27;100281.30;106010;1292;60223;-56
2023/11/21 02:33:58;;;;;;;1444.30;999.90;;;;;;;2.53;98.12;100287.23;106041;1291;73716;-56
2023/11/21 02:36:44;;;;;;;;;;;;;;;2.54;98.10;100288.95;106055;1292;68226;-56
2023/11/21 02:39:30;;;;;;;1374.90;999.90;;;;;;;2.54;98.09;100288.78;106075;1294;71206;-55
2023/11/21 02:42:17;;;;;;;1507.90;999.90;;;;;;;2.53;97.99;100290.47;106048;1292;58340;-56
2023/11/21 02:45:05;;;;;;;1486.60;999.90;;;;;;;2.52;97.95;100296.25;106088;1292;59978;-56
2023/11/21 02:47:53;;;;;;;1469.50;999.90;;;;;;;2.51;97.89;100298.27;105548;1295;73286;-54
2023/11/21 02:50:39;;;;;;;1453.90;999.90;;;;;;;2.51;98.01;100302.52;104729;1296;67564;-56
2023/11/21 02:53:25;;;;;;;1499.10;999.90;;;;;;;2.52;98.10;100303.21;104741;1292;73973;-53
2023/11/21 02:56:12;;;;;;;1497.10;999.90;;;;;;;2.48;98.04;100314.05;104684;1292;60472;-55
2023/11/21 02:59:00;;;;;;;1475.20;999.90;;;;;;;2.43;97.93;100315.02;106017;1292;58919;-57
2023/11/21 03:01:46;;;;;;;1500.60;999.90;;;;;;;2.36;97.80;100318.15;106073;1292;72511;-56
2023/11/21 03:04:32;;;;;;;1439.30;999.90;;;;;;;2.31;97.89;100319.45;106068;1292;68459;-56
2023/11/21 03:07:19;;;;;;;1469.00;999.90;;;;;;;2.27;97.87;100319.73;105336;1295;71407;-55
2023/11/21 03:10:08;;;;;;;1482.60;999.90;;;;;;;2.24;97.76;100324.65;104759;1291;60307;-55
2023/11/21 03:12:54;;;;;;;1459.80;999.90;;;;;;;2.25;97.84;100322.79;106088;1291;59925;-56
2023/11/21 03:15:40;;;;;;;1440.00;999.90;;;;;;;2.26;97.93;100324.15;106026;1292;74305;-56
2023/11/21 03:18:28;;;;;;;1481.80;999.90;;;;;;;2.25;97.79;100333.83;105073;1293;67417;-56
2023/11/21 03:21:15;;;;;;;1398.90;999.90;;;;;;;2.24;97.83;100340.11;104666;1295;72953;-53
2023/11/21 03:24:01;;;;;;;1450.50;999.90;;;;;;;2.20;97.76;100340.23;104706;1292;60441;-55
2023/11/21 03:26:47;;;;;;;;;;;;;;;2.16;97.69;100340.52;104779;1292;60322;-56
2023/11/21 03:29:33;;;;;;;1379.80;999.90;;;;;;;2.11;97.81;100342.98;104693;1295;72428;-54
2023/11/21 03:32:19;;;;;;;;;;;;;;;2.05;97.78;100350.06;104556;1292;67298;-52
2023/11/21 03:35:07;;;;;;;1312.60;999.90;;;;;;;1.99;97.81;100350.16;104723;1292;71316;-54
2023/11/21 03:37:52;;;;;;;1390.50;999.90;;;;;;;1.94;97.69;100350.09;106058;1291;58224;-55
2023/11/21 03:40:39;;;;;;;1375.60;999.90;;;;;;;1.89;97.65;100352.90;105883;1295;59894;-55
2023/11/21 03:43:26;;;;;;;1356.70;999.90;;;;;;;1.85;97.62;100352.85;104669;1295;76341;-54
2023/11/21 03:46:13;;;;;;;1409.30;999.90;;;;;;;1.85;97.69;100358.11;104605;1292;70648;-54
2023/11/21 03:48:59;;;;;;;1420.30;999.90;;;;;;;1.80;97.68;100359.57;104712;1292;70491;-55
2023/11/21 03:51:45;;;;;;;1397.00;999.90;;;;;;;1.81;97.71;100358.05;104739;1292;60373;-55
2023/11/21 03:54:31;;;;;;;1348.00;999.90;;;;;;;1.81;97.76;100356.17;104716;1292;60458;-56
2023/11/21 03:57:17;;;;;;;;;;;;;;;1.80;97.68;100354.64;104748;1295;72493;-58
2023/11/21 04:00:08;;;;;;;1312.70;999.90;;;;;;;1.76;97.75;100357.13;104702;1292;70036;-56
2023/11/21 04:02:54;;;;;;;1377.50;999.90;;;;;;;1.71;97.65;100358.58;106067;1291;73075;-55
2023/11/21 04:05:41;;;;;;;1354.00;999.90;;;;;;;1.68;97.63;100357.84;106029;1292;58145;-55
2023/11/21 04:08:26;;;;;;;1402.20;999.90;;;;;;;1.66;97.98;100360.36;106035;1291;59132;-57
2023/11/21 04:11:13;;;;;;;1393.90;999.90;;;;;;;1.66;97.83;100359.68;106030;1292;72405;-55
2023/11/21 04:13:59;;;;;;;1361.30;999.90;;;;;;;1.63;97.76;100360.15;106080;1292;67444;-55
2023/11/21 04:16:45;;;;;;;1308.50;999.90;;;;;;;1.60;97.78;100365.55;105998;1292;71543;-56
2023/11/21 04:19:31;;;;;;;1373.60;999.90;;;;;;;1.57;97.66;100362.77;104966;1292;60486;-55
2023/11/21 04:22:17;;;;;;;;;;;;;;;1.55;97.74;100365.14;104695;1291;60378;-55
2023/11/21 04:25:04;;;;;;;1265.70;999.90;;;;;;;1.54;97.89;100371.92;104699;1294;72850;-58
2023/11/21 04:27:50;;;;;;;1377.10;999.90;;;;;;;1.50;97.87;100377.98;104708;1292;69808;-58
2023/11/21 04:30:36;;;;;;;1390.40;999.90;;;;;;;1.45;98.03;100382.30;104713;1295;73490;-58
2023/11/21 04:33:22;;;;;;;1428.70;999.90;;;;;;;1.41;97.92;100391.06;104715;1292;60324;-57
2023/11/21 04:36:09;;;;;;;;;;;;;;;1.38;97.83;100396.27;104696;1292;60506;-57
2023/11/21 04:38:55;;;;;;;1343.20;999.90;;;;;;;1.34;97.72;100397.05;104692;1291;71511;-58
2023/11/21 04:41:42;;;;;;;1331.30;999.90;;;;;;;1.31;97.82;100395.98;104747;1292;70376;-57
2023/11/21 04:44:28;;;;;;;1284.30;999.90;;;;;;;1.29;97.77;100403.76;104723;1291;71250;-57
2023/11/21 04:47:15;;;;;;;1292.00;999.90;;;;;;;1.26;97.63;100406.09;104677;1294;60140;-58
2023/11/21 04:50:03;;;;;;;1298.80;999.90;;;;;;;1.26;97.71;100405.91;104734;1295;62029;-58
2023/11/21 04:52:49;;;;;;;1322.00;999.90;;;;;;;1.26;97.72;100411.85;105101;1295;72167;-57
2023/11/21 04:55:35;;;;;;;;;;;;;;;1.26;97.66;100414.55;104710;1292;66303;-57
2023/11/21 04:58:21;;;;;;;1291.20;999.90;;;;;;;1.25;97.64;100419.98;104689;1292;71187;-57
2023/11/21 05:01:07;;;;;;;;;;;;;;;1.25;97.88;100417.27;104703;1292;60406;-54
2023/11/21 05:03:54;;;;;;;1254.00;999.90;;;;;;;1.24;97.92;100418.94;104700;1295;61190;-56
2023/11/21 05:06:40;;;;;;;1321.10;999.90;;;;;;;1.23;97.93;100419.09;104680;1292;75168;-58
2023/11/21 05:09:28;;;;;;;1296.60;999.90;;;;;;;1.22;97.77;100430.28;104735;1292;69575;-58
2023/11/21 05:12:14;;;;;;;1297.10;999.90;;;;;;;1.23;97.64;100427.23;104683;1293;72628;-57
2023/11/21 05:15:01;;;;;;;1249.60;999.90;;;;;;;1.22;97.60;100427.56;104699;1292;60357;-56
2023/11/21 05:17:49;;;;;;;;;;;;;;;1.20;97.51;100430.75;104706;1292;60332;-55
2023/11/21 05:20:36;;;;;;;1264.50;999.90;;;;;;;1.19;97.53;100430.73;104688;1291;72471;-58
2023/11/21 05:23:22;;;;;;;1305.40;999.90;;;;;;;1.18;97.40;100434.94;104657;1292;72065;-57
2023/11/21 05:26:08;;;;;;;1285.50;999.90;;;;;;;1.13;97.39;100439.11;104644;1291;71295;-58
2023/11/21 05:28:54;;;;;;;;;;;;;;;1.14;97.44;100439.63;104695;1292;60673;-57
2023/11/21 05:31:40;;;;;;;1298.00;999.90;;;;;;;1.14;97.67;100444.39;104776;1292;60470;-56
2023/11/21 05:34:27;;;;;;;;;;;;;;;1.13;97.69;100448.26;104682;1292;72421;-55
2023/11/21 05:37:13;;;;;;;1276.80;999.90;;;;;;;1.13;97.71;100452.52;104664;1291;67121;-57
2023/11/21 05:40:04;;;;;;;1286.30;999.90;;;;;;;1.14;97.65;100457.45;104588;1292;73075;-56
2023/11/21 05:42:51;;;;;;;1245.00;999.90;;;;;;;1.13;97.64;100459.13;104679;1292;60377;-57
2023/11/21 05:45:38;;;;;;;1266.30;999.90;;;;;;;1.11;97.50;100461.29;104647;1290;59377;-56
2023/11/21 05:48:25;;;;;;;1297.50;999.90;;;;;;;1.09;97.42;100471.10;104681;1291;72362;-57
2023/11/21 05:51:12;;;;;;;1305.30;999.90;;;;;;;1.06;97.47;100475.62;104551;1292;68281;-57
2023/11/21 05:53:58;;;;;;;1282.00;999.90;;;;;;;1.03;97.54;100476.77;104612;1293;72480;-57
2023/11/21 05:56:45;;;;;;;1326.30;999.90;;;;;;;1.01;97.54;100482.00;104610;1291;60610;-55
2023/11/21 05:59:31;;;;;;;1398.60;999.90;;;;;;;0.99;97.53;100488.41;104608;1291;60340;-57
2023/11/21 06:02:18;;;;;;;1387.80;999.90;;;;;;;0.97;97.43;100489.73;104595;1296;75338;-57
2023/11/21 06:05:08;;;;;;;1331.30;999.90;;;;;;;0.94;97.33;100488.33;104640;1292;67105;-56
2023/11/21 06:07:58;;;;;;;1314.10;999.90;;;;;;;0.91;97.42;100488.24;106006;1292;71696;-56
2023/11/21 06:10:44;;;;;;;1280.20;999.90;;;;;;;0.91;97.42;100488.42;106061;1291;58457;-56
2023/11/21 06:13:30;;;;;;;1264.80;999.90;;;;;;;0.90;97.53;100495.02;106067;1291;58786;-56
2023/11/21 06:16:18;;;;;;;1286.50;999.90;;;;;;;0.89;97.33;100497.71;104774;1292;74640;-53
2023/11/21 06:19:05;;;;;;;1274.80;999.90;;;;;;;0.89;97.33;100500.77;104664;1294;67522;-57
2023/11/21 06:21:51;;;;;;;1270.40;999.90;;;;;;;0.90;97.34;100511.15;104649;1295;72015;-57
2023/11/21 06:24:38;;;;;;;;;;;;;;;0.92;97.41;100517.13;104659;1292;60255;-56
2023/11/21 06:27:24;;;;;;;1350.10;999.90;;;;;;;0.94;97.41;100519.70;104654;1291;62710;-57
2023/11/21 06:30:13;;;;;;;1298.50;999.90;;;;;;;0.94;97.35;100522.93;104617;1295;72347;-54
2023/11/21 06:32:59;;;;;;;1235.80;983.20;;;;;;;0.93;97.61;100528.85;106068;1291;67468;-57
2023/11/21 06:35:45;;;;;;;1336.90;999.90;;;;;;;0.91;97.93;100541.20;105941;1291;72516;-56
2023/11/21 06:38:32;;;;;;;1280.40;999.90;;;;;;;0.92;97.79;100546.14;106015;1291;58957;-55
2023/11/21 06:41:17;;;;;;;1288.50;999.90;;;;;;;0.93;97.56;100546.67;106038;1291;58831;-57
2023/11/21 06:44:04;;;;;;;1319.10;999.90;;;;;;;0.94;97.44;100547.20;106037;1291;72657;-56
2023/11/21 06:46:51;;;;;;;1299.40;999.90;;;;;;;0.95;97.39;100548.75;106039;1291;69316;-57
2023/11/21 06:49:38;;;;;;;1355.10;999.90;;;;;;;0.94;97.41;100552.46;106065;1291;73249;-57
2023/11/21 06:52:24;;;;;;;1317.60;999.90;;;;;;;0.93;97.61;100563.48;106046;1291;58540;-57
2023/11/21 06:55:10;;;;;;;1403.90;999.90;;;;;;;0.93;97.75;100569.24;105967;1291;58955;-56
2023/11/21 06:57:57;;;;;;;;;;;;;;;0.92;97.75;100571.27;106031;1292;72640;-56
2023/11/21 07:00:46;;;;;;;1333.00;999.90;;;;;;;0.89;97.82;100573.23;106025;1292;67424;-56
2023/11/21 07:03:32;;;;;;;1331.60;999.90;;;;;;;0.88;97.75;100578.80;106055;1292;70912;-56
2023/11/21 07:06:18;;;;;;;1437.70;999.90;;;;;;;0.86;97.57;100587.57;106034;1291;58461;-57
2023/11/21 07:09:04;;;;;;;1371.80;999.90;;;;;;;0.84;97.34;100592.79;105941;1292;59996;-56
2023/11/21 07:11:50;;;;;;;1367.70;999.90;;;;;;;0.84;97.33;100592.95;106013;1291;72365;-57
2023/11/21 07:14:38;;;;;;;1366.30;999.90;;;;;;;0.83;97.55;100601.09;105975;1292;70156;-56
2023/11/21 07:17:24;;;;;;;1366.80;999.90;;;;;;;0.83;97.43;100607.52;105996;1291;72390;-56
2023/11/21 07:20:12;;;;;;;1412.20;999.90;;;;;;;0.81;97.57;100615.30;106013;1291;58400;-55
2023/11/21 07:22:57;;;;;;;1339.60;999.90;;;;;;;0.78;97.39;100623.36;105994;1291;59423;-54
2023/11/21 07:25:43;;;;;;;1346.20;999.90;;;;;;;0.78;97.53;100627.77;106019;1292;73829;-55
2023/11/21 07:28:30;;;;;;;1381.00;999.90;;;;;;;0.78;97.36;100627.61;105999;1291;68663;-55
2023/11/21 07:31:15;;;;;;;1362.20;999.90;;;;;;;0.77;97.20;100624.51;105996;1291;71105;-55
2023/11/21 07:34:02;;;;;;;1396.80;999.90;;;;;;;0.76;97.22;100626.02;105989;1292;58450;-56
2023/11/21 07:36:48;;;;;;;1389.20;999.90;;;;;;;0.76;97.44;100631.96;106038;1292;58329;-56
2023/11/21 07:39:34;;;;;;;1356.90;999.90;;;;;;;0.74;97.34;100632.42;106005;1291;73352;-55
2023/11/21 07:42:20;;;;;;;1326.90;999.90;;;;;;;0.77;97.30;100634.38;106032;1291;67448;-55
2023/11/21 07:45:06;;;;;;;1348.80;999.90;;;;;;;0.77;97.21;100637.59;106014;1291;71359;-55
2023/11/21 07:47:54;;;;;;;1400.20;999.90;;;;;;;0.76;97.34;100643.00;106009;1291;58402;-56
2023/11/21 07:50:40;;;;;;;1374.30;999.90;;;;;;;0.75;97.28;100646.54;106010;1291;60180;-56
2023/11/21 07:53:28;;;;;;;1363.40;999.90;;;;;;;0.74;97.26;100651.94;105993;1291;71575;-55
2023/11/21 07:56:14;;;;;;;1353.10;999.90;;;;;;;0.72;97.22;100651.20;106006;1292;67314;-56
2023/11/21 07:59:00;;;;;;;1367.10;999.90;;;;;;;0.70;97.40;100654.38;105953;1291;70600;-56
2023/11/21 08:01:46;;;;;;;1400.20;999.90;;;;;;;0.67;97.29;100662.62;106006;1291;59437;-56
2023/11/21 08:04:34;;;;;;;1378.40;999.90;;;;;;;0.67;97.30;100664.15;106019;1291;61312;-55
2023/11/21 08:07:19;;;;;;;1367.60;999.90;;;;;;;0.70;97.23;100664.55;105979;1291;71447;-56
2023/11/21 08:10:06;;;;;;;1331.50;999.90;;;;;;;0.73;97.33;100660.06;106006;1292;67589;-55
2023/11/21 08:12:53;;;;;;;1325.70;999.90;;;;;;;0.74;97.28;100660.42;106017;1291;71332;-56
2023/11/21 08:15:39;;;;;;;1386.20;999.90;;;;;;;0.74;97.22;100662.46;105982;1295;57657;-55
2023/11/21 08:18:25;;;;;;;1382.00;999.90;;;;;;;0.74;97.20;100657.71;105979;1291;59026;-56
2023/11/21 08:21:13;;;;;;;1350.50;999.90;;;;;;;0.76;97.22;100666.41;105996;1292;73757;-56
2023/11/21 08:24:00;;;;;;;1376.30;999.90;;;;;;;0.78;97.27;100673.76;106016;1291;67408;-57
2023/11/21 08:26:45;;;;;;;1390.10;999.90;;;;;;;0.78;97.16;100678.50;105979;1291;72389;-56
2023/11/21 08:29:31;;;;;;;1356.90;999.90;;;;;;;0.78;97.26;100682.59;106003;1292;58543;-56
2023/11/21 08:32:18;;;;;;;1372.90;999.90;;;;;;;0.77;97.36;100684.23;106018;1291;58940;-54
2023/11/21 08:35:05;;;;;;;1359.70;999.90;;;;;;;0.73;97.23;100685.83;106007;1291;73556;-57
2023/11/21 08:37:52;;;;;;;1346.70;999.90;;;;;;;0.70;97.10;100689.66;106012;1291;68351;-56
2023/11/21 08:40:39;;;;;;;1390.10;999.90;;;;;;;0.63;96.76;100694.59;105892;1292;71878;-56
2023/11/21 08:43:25;;;;;;;1369.30;999.90;;;;;;;0.59;96.67;100701.11;105987;1292;58476;-57
2023/11/21 08:46:11;;;;;;;;;;;;;;;0.59;96.90;100704.16;106012;1291;59334;-56
2023/11/21 08:48:57;;;;;;;1421.40;999.90;;;;;;;0.64;97.18;100694.79;105967;1294;72476;-57
2023/11/21 08:51:45;;;;;;;1375.40;999.90;;;;;;;0.70;97.16;100700.35;105710;1293;353349;-57
2023/11/21 08:54:31;;;;;;;1394.30;999.90;;;;;;;0.72;97.13;100702.61;105886;1292;71430;-56
2023/11/21 08:57:17;;;;;;;1427.70;999.90;;;;;;;0.73;96.97;100709.43;105964;1292;58975;-55
2023/11/21 09:00:07;;;;;;;1415.70;999.90;;;;;;;0.71;96.89;100714.30;105954;1292;58990;-55
2023/11/21 09:02:53;;;;;;;1434.30;999.90;;;;;;;0.72;96.77;100720.27;105903;1292;74566;-58
2023/11/21 09:05:39;;;;;;;1483.30;999.90;;;;;;;0.76;96.76;100725.78;105940;1291;68494;-57
2023/11/21 09:08:25;;;;;;;;;;;;;;;0.75;96.51;100729.48;106010;1291;73103;-57
2023/11/21 09:11:11;;;;;;;1336.00;999.90;;;;;;;0.72;96.41;100732.13;105987;1292;59861;-57
2023/11/21 09:13:57;;;;;;;1370.20;999.90;;;;;;;0.69;96.21;100730.02;102219;1293;5003969;-56
2023/11/21 09:16:43;;;;;;;;;;;;;;;0.70;96.48;100730.90;106045;1292;68296;-57
2023/11/21 09:19:29;;;;;;;;;;;;;;;0.70;96.50;100734.46;106019;1291;73307;-58
2023/11/21 09:22:16;;;;;;;1374.20;999.90;;;;;;;0.70;96.33;100733.95;105955;1294;59014;-58
2023/11/21 09:25:04;;;;;;;1333.50;999.90;;;;;;;0.70;96.26;100731.41;106064;1291;59231;-57
2023/11/21 09:27:50;;;;;;;1374.80;999.90;;;;;;;0.72;96.41;100732.65;106008;1292;72962;-57
2023/11/21 09:30:36;;;;;;;1419.40;999.90;;;;;;;0.77;96.38;100737.20;105992;1292;67142;-58
2023/11/21 09:33:24;;;;;;;1378.20;999.90;;;;;;;0.78;96.38;100739.41;105968;1292;72904;-57
2023/11/21 09:36:14;;;;;;;1378.20;999.90;;;;;;;0.81;96.53;100743.05;105961;1292;59041;-57
2023/11/21 09:39:02;;;;;;;1417.50;999.90;;;;;;;0.83;96.60;100745.98;105950;1292;60530;-57
2023/11/21 09:42:21;;;;;;;1398.80;999.90;;;;;;;0.86;96.62;100751.33;105948;1292;74493;-57
2023/11/21 09:45:34;;;;;;;1414.30;999.90;;;;;;;0.88;96.59;100756.47;105932;1291;67172;-57
2023/11/21 09:48:21;;;;;;;1411.70;999.90;;;;;;;0.89;96.61;100759.39;105915;1292;71545;-57
2023/11/21 09:51:08;;;;;;;1413.70;999.90;;;;;;;0.92;96.76;100758.11;106016;1292;59828;-57
2023/11/21 09:53:58;;;;;;;1427.60;999.90;;;;;;;0.93;96.52;100756.10;105887;1292;59058;-57
2023/11/21 09:56:44;;;;;;;1447.80;999.90;;;;;;;0.97;96.65;100755.18;105898;1292;73204;-58
2023/11/21 09:59:35;;;;;;;1444.40;999.90;;;;;;;0.98;96.17;100754.87;105989;1292;68338;-57
2023/11/21 10:02:26;;;;;;;1435.80;999.90;;;;;;;1.02;96.36;100749.02;105981;1291;71413;-57
2023/11/21 10:05:12;;;;;;;1471.60;999.90;;;;;;;1.07;96.28;100749.95;105959;1292;59010;-56
2023/11/21 10:07:58;;;;;;;1468.50;999.90;;;;;;;1.06;95.66;100748.73;106027;1292;60152;-56
2023/11/21 10:10:48;;;;;;;1499.20;999.90;;;;;;;1.09;95.99;100754.59;105967;1291;72665;-57
2023/11/21 10:13:35;;;;;;;1452.10;999.90;;;;;;;1.17;96.22;100756.64;106029;1291;68733;-57
2023/11/21 10:16:24;;;;;;;1462.70;999.90;;;;;;;1.16;96.02;100761.21;105602;1294;72436;-57
2023/11/21 10:19:13;;;;;;;1472.70;999.90;;;;;;;1.13;95.93;100767.92;104633;1292;61155;-56
2023/11/21 10:22:01;;;;;;;1470.30;999.90;;;;;;;1.09;95.71;100773.45;104592;1292;61176;-57
2023/11/21 10:24:47;;;;;;;1422.20;999.90;;;;;;;1.06;95.93;100774.71;104653;1292;73569;-59
2023/11/21 10:27:38;;;;;;;1422.10;999.90;;;;;;;1.08;96.13;100780.02;104517;1292;67238;-57
2023/11/21 10:30:28;;;;;;;1390.30;999.90;;;;;;;1.03;95.73;100780.25;105979;1291;71456;-58
2023/11/21 10:33:14;;;;;;;1406.60;999.90;;;;;;;0.92;95.43;100782.54;105590;1292;59233;-56
2023/11/21 10:36:02;;;;;;;978.10;867.60;;;;;;;0.86;95.40;100782.55;103832;1292;968571;-55
2023/11/21 10:38:52;;;;;;;1342.00;999.90;;;;;;;0.81;95.74;100785.98;104626;1291;75481;-58
2023/11/21 10:41:39;;;;;;;1311.20;999.90;;;;;;;0.79;95.98;100788.81;104600;1291;67184;-59
2023/11/21 10:44:26;;;;;;;1329.90;999.90;;;;;;;0.82;96.24;100790.92;104608;1291;71574;-58
2023/11/21 10:47:12;;;;;;;1330.50;999.90;;;;;;;0.81;95.82;100793.61;104635;1292;61359;-59
2023/11/21 10:50:01;;;;;;;1320.80;999.90;;;;;;;0.80;96.04;100795.98;104662;1294;61240;-57
2023/11/21 10:52:48;;;;;;;1334.70;999.90;;;;;;;0.79;95.71;100796.45;104595;1291;73211;-58
2023/11/21 10:55:34;;;;;;;1187.50;999.90;;;;;;;0.74;95.49;100800.55;104648;1292;67800;-59
2023/11/21 10:58:21;;;;;;;1316.10;999.90;;;;;;;0.72;95.28;100799.81;104632;1292;73998;-59
2023/11/21 11:01:08;;;;;;;1298.00;999.90;;;;;;;0.70;95.41;100799.44;104589;1292;61256;-58
2023/11/21 11:03:54;;;;;;;1237.80;999.90;;;;;;;0.67;95.12;100800.55;104627;1291;61135;-59
2023/11/21 11:06:41;;;;;;;;;;;;;;;0.67;95.64;100804.77;105975;1291;73376;-57
2023/11/21 11:09:28;;;;;;;1168.60;999.60;;;;;;;0.66;95.64;100805.95;106006;1292;67484;-57
2023/11/21 11:12:14;;;;;;;1197.30;999.80;;;;;;;0.65;95.31;100810.33;105988;1291;71160;-58
2023/11/21 11:15:02;;;;;;;1222.50;999.90;;;;;;;0.63;95.31;100814.52;106010;1291;58985;-57
2023/11/21 11:17:48;;;;;;;1231.40;999.90;;;;;;;0.64;95.39;100815.58;105974;1292;59493;-58
2023/11/21 11:20:37;;;;;;;1054.70;948.10;;;;;;;0.67;95.16;100818.52;105978;1291;74535;-58
2023/11/21 11:24:05;;;;;;;1134.00;998.20;;;;;;;0.69;95.31;100821.29;105991;1292;68361;-58
2023/11/21 11:27:26;;;;;;;1124.40;996.80;;;;;;;0.73;95.42;100822.76;105989;1292;72549;-57
2023/11/21 11:30:41;;;;;;;1125.30;992.40;;;;;;;0.81;95.73;100826.71;105596;1292;59046;-59
2023/11/21 11:33:50;;;;;;;1138.10;997.70;;;;;;;0.87;95.86;100830.44;106024;1291;59776;-58
2023/11/21 11:36:43;;;;;;;1150.40;999.90;;;;;;;0.91;95.78;100841.06;106024;1291;74552;-58
2023/11/21 11:39:38;;;;;;;1193.50;999.90;;;;;;;0.92;95.81;100850.10;105792;1292;67284;-58
2023/11/21 11:42:26;;;;;;;1173.70;999.90;;;;;;;0.91;95.74;100854.66;105920;1291;71829;-58
2023/11/21 11:45:21;;;;;;;1189.30;999.90;;;;;;;0.90;95.48;100863.45;104614;1292;61197;-58
2023/11/21 11:48:14;;;;;;;1228.60;999.90;;;;;;;0.88;95.37;100862.19;104594;1291;61269;-60
2023/11/21 11:51:03;;;;;;;1173.90;999.90;;;;;;;0.89;95.51;100861.05;104589;1292;73775;-58
2023/11/21 11:53:51;;;;;;;1151.40;999.20;;;;;;;0.92;95.69;100866.88;106022;1291;68047;-58
2023/11/21 11:56:39;;;;;;;1178.30;999.90;;;;;;;0.89;95.51;100867.98;105997;1292;72519;-58
2023/11/21 11:59:25;;;;;;;1179.40;999.90;;;;;;;0.84;95.35;100873.12;105965;1291;59956;-58
2023/11/21 12:02:12;;;;;;;;;;;;;;;0.83;95.39;100870.70;106039;1291;60982;-59
2023/11/21 12:04:58;;;;;;;964.90;862.80;;;;;;;0.79;95.00;100871.11;106016;1292;73418;-57
2023/11/21 12:07:54;;;;;;;1160.50;999.70;;;;;;;0.78;94.81;100879.89;106014;1295;67553;-58
2023/11/21 12:10:40;;;;;;;1137.20;998.20;;;;;;;0.76;94.80;100884.09;106035;1291;72139;-58
2023/11/21 12:13:28;;;;;;;1172.20;999.90;;;;;;;0.79;95.04;100883.99;105981;1292;58946;-58
2023/11/21 12:16:14;;;;;;;1181.20;999.90;;;;;;;0.81;95.06;100885.42;105984;1291;59209;-58
2023/11/21 12:19:00;;;;;;;1165.50;999.90;;;;;;;0.84;95.20;100879.06;105959;1291;73291;-58
2023/11/21 12:21:48;;;;;;;1130.40;985.80;;;;;;;0.87;95.20;100880.82;106026;1291;68340;-58
2023/11/21 12:24:34;;;;;;;1210.00;999.90;;;;;;;0.88;94.98;100882.72;105947;1292;71537;-58